Metar Aviation Weather Data KORD

41°F Temp
37°F Dewpoint
% Humidity
Temperature
3 MPH
5 KM/H
3 KTS
150°
South South
East

Wind Speed
Partly Cloudy
Conditions
Pressure 1018.32 (hPa) - 30.07 (in)
Visibility 10.0 (mi) - 16 (km)

Current Conditions
KORD
Metar :KORD 181251Z 15003KT 10SM FEW200 BKN250 05/03 A3007 RMK AO2 SLP186 T00500033
Fri 18th October 07:51 am

  Metar Aviation API Data Provided by https://www.checkwx.com/ PHP scripts by weather34.com ©2019